Time;durP1;ratioP1;P1;durP2;ratioP2;P2;SDS_P1;SDS_P2;PMS_P1;PMS_P2;Temp;Humidity;BMP_temperature;BMP_pressure;BME280_temperature;BME280_humidity;BME280_pressure;Samples;Min_cycle;Max_cycle;Signal;HPM_P1;HPM_P2
2023/09/15 00:01:18;;;;;;;;;;;;;;;28.81;42.67;94363.38;5006869;28;7066;-64
2023/09/15 00:04:04;;;;;;;;;;;;;;;28.80;42.23;94364.63;5002915;28;8742;-63
2023/09/15 00:06:48;;;;;;;;;;;;;;;28.82;42.56;94364.09;5012862;28;7142;-63
2023/09/15 00:09:35;;;;;;;;;;;;;;;28.80;42.90;94356.31;5027755;28;9436;-63
2023/09/15 00:12:18;;;;;;;;;;;;;;;28.83;42.78;94371.13;5008828;28;7171;-63
2023/09/15 00:14:47;;;;;;;;;;;;;;;28.81;42.91;94357.06;4999210;28;6991;-63
2023/09/15 00:17:17;;;;;;;;;;;;;;;28.80;42.54;94355.56;5008634;28;7847;-63
2023/09/15 00:19:46;;;;;;;;;;;;;;;28.78;43.06;94352.59;4996334;28;7300;-63
2023/09/15 00:22:12;;;;;;;;;;;;;;;28.77;42.84;94353.88;5010017;28;7051;-63
2023/09/15 00:24:40;;;;;;;;;;;;;;;28.78;42.13;94349.81;5002625;28;7274;-63
2023/09/15 00:27:11;;;;;;;;;;;;;;;28.78;42.70;94364.41;5030924;28;9374;-63
2023/09/15 00:30:08;;;;;;;;;;;;;;;28.80;42.93;94352.81;5007593;28;7542;-62
2023/09/15 00:36:23;;;;;;;;;;;;;;;28.79;42.24;94359.63;4933141;29;8948;-63
2023/09/15 00:39:01;;;;;;;;;;;;;;;28.77;42.31;94360.19;4918703;29;9072;-63
2023/09/15 00:41:41;;;;;;;;;;;;;;;28.80;42.79;94372.94;4930932;29;8812;-62
2023/09/15 00:44:29;;;;;;;;;;;;;;;28.77;42.53;94368.47;4932784;29;7412;-62
2023/09/15 00:47:15;;;;;;;;;;;;;;;28.77;42.43;94368.47;4935734;29;7276;-63
2023/09/15 00:50:00;;;;;;;;;;;;;;;28.77;42.21;94357.41;4924636;29;7819;-63
2023/09/15 00:52:34;;;;;;;;;;;;;;;28.76;42.72;94349.63;4920640;29;7270;-63
2023/09/15 00:55:03;;;;;;;;;;;;;;;28.78;42.09;94352.59;4936174;29;7316;-63
2023/09/15 00:57:56;;;;;;;;;;;;;;;28.76;42.39;94349.63;4920526;29;7301;-63
2023/09/15 01:00:32;;;;;;;;;;;;;;;28.75;42.54;94337.06;4930046;29;7250;-63
2023/09/15 01:03:35;;;;;;;;;;;;;;;28.76;43.06;94352.38;4920480;29;7389;-63
2023/09/15 01:06:51;;;;;;;;;;;;;;;28.76;42.20;94341.31;4908209;29;7010;-65
2023/09/15 01:09:19;;;;;;;;;;;;;;;28.71;42.80;94326.31;4902668;29;7126;-65
2023/09/15 01:11:46;;;;;;;;;;;;;;;28.72;43.08;94325.03;4928833;28;7508;-65
2023/09/15 01:14:13;;;;;;;;;;;;;;;28.75;42.71;94331.53;4934453;28;9106;-64
2023/09/15 01:17:01;;;;;;;;;;;;;;;28.72;43.03;94327.81;4931833;28;9137;-65
2023/09/15 01:19:50;;;;;;;;;;;;;;;28.74;42.61;94330.03;4922178;29;9333;-65
2023/09/15 01:22:47;;;;;;;;;;;;;;;28.73;42.35;94332.03;4934220;28;9148;-65
2023/09/15 01:25:40;;;;;;;;;;;;;;;28.74;42.52;94327.25;4931993;28;7444;-65
2023/09/15 01:28:17;;;;;;;;;;;;;;;28.74;42.68;94330.03;4934074;28;7313;-65
2023/09/15 01:30:50;;;;;;;;;;;;;;;28.71;42.26;94326.31;4923711;29;7296;-65
2023/09/15 01:33:31;;;;;;;;;;;;;;;28.73;42.63;94334.81;4933956;28;9408;-64
2023/09/15 01:36:06;;;;;;;;;;;;;;;28.74;43.21;94335.56;4938065;28;8190;-64
2023/09/15 01:38:53;;;;;;;;;;;;;;;28.73;42.54;94343.13;4935957;29;7272;-65
2023/09/15 01:41:38;;;;;;;;;;;;;;;28.73;41.82;94340.34;4935365;29;7078;-65
2023/09/15 01:44:37;;;;;;;;;;;;;;;28.71;43.00;94337.38;4935758;28;7465;-64
2023/09/15 01:47:29;;;;;;;;;;;;;;;28.71;42.19;94342.91;5014295;28;9055;-65
2023/09/15 01:50:02;;;;;;;;;;;;;;;28.73;42.92;94339.63;5014537;28;9169;-65
2023/09/15 01:52:35;;;;;;;;;;;;;;;28.71;42.13;94337.38;5015549;28;7178;-65
2023/09/15 01:55:13;;;;;;;;;;;;;;;28.69;42.49;94339.19;5013848;28;7493;-65
2023/09/15 01:57:47;;;;;;;;;;;;;;;28.70;42.87;94335.16;5008835;28;8849;-64
2023/09/15 02:00:20;;;;;;;;;;;;;;;28.69;41.99;94334.41;5013442;28;7079;-64
2023/09/15 02:02:47;;;;;;;;;;;;;;;28.68;42.27;94327.38;5014926;28;7255;-65
2023/09/15 02:05:34;;;;;;;;;;;;;;;28.66;42.14;94329.94;5038262;28;7524;-64
2023/09/15 02:08:07;;;;;;;;;;;;;;;28.69;42.73;94330.88;5010230;28;7197;-65
2023/09/15 02:10:44;;;;;;;;;;;;;;;28.69;42.13;94322.56;5003860;28;7252;-65
2023/09/15 02:13:15;;;;;;;;;;;;;;;28.68;42.85;94340.47;5012943;28;7372;-64
2023/09/15 02:15:44;;;;;;;;;;;;;;;28.68;42.28;94340.47;5030073;28;7054;-63
2023/09/15 02:18:22;;;;;;;;;;;;;;;28.68;42.97;94338.47;5013813;28;9033;-63
2023/09/15 02:21:19;;;;;;;;;;;;;;;28.67;42.54;94325.88;5012879;28;7153;-63
2023/09/15 02:23:48;;;;;;;;;;;;;;;28.65;42.17;94320.13;4937970;28;7562;-63
2023/09/15 02:26:21;;;;;;;;;;;;;;;28.67;42.97;94330.66;4932862;28;7274;-63
2023/09/15 02:29:40;;;;;;;;;;;;;;;28.67;42.32;94328.66;4934029;28;8742;-63
2023/09/15 02:32:26;;;;;;;;;;;;;;;28.66;42.02;94329.19;4913626;29;7228;-63
2023/09/15 02:34:54;;;;;;;;;;;;;;;28.65;42.21;94325.66;4899041;29;8235;-63
2023/09/15 02:37:30;;;;;;;;;;;;;;;28.65;42.98;94322.16;4906389;29;7272;-63
2023/09/15 02:40:08;;;;;;;;;;;;;;;28.65;42.58;94316.63;4913709;29;7352;-63
2023/09/15 02:42:36;;;;;;;;;;;;;;;28.65;42.25;94317.38;4906696;29;9097;-63
2023/09/15 02:45:31;;;;;;;;;;;;;;;28.65;42.89;94325.66;4913269;29;7314;-63
2023/09/15 02:48:16;;;;;;;;;;;;;;;28.65;42.33;94316.63;4910254;29;7478;-63
2023/09/15 02:50:43;;;;;;;;;;;;;;;28.65;42.21;94314.59;4920949;29;9350;-63
2023/09/15 02:53:19;;;;;;;;;;;;;;;28.64;42.12;94313.13;4890611;29;8762;-63
2023/09/15 02:56:08;;;;;;;;;;;;;;;28.65;42.40;94308.31;4898511;29;7525;-63
2023/09/15 02:58:34;;;;;;;;;;;;;;;28.65;42.59;94325.66;4908873;29;8968;-63
2023/09/15 03:01:26;;;;;;;;;;;;;;;28.65;42.09;94316.63;4957583;28;7219;-63
2023/09/15 03:04:05;;;;;;;;;;;;;;;28.65;42.21;94317.38;4955630;28;8972;-63
2023/09/15 03:06:39;;;;;;;;;;;;;;;28.63;42.48;94314.38;4948146;28;9419;-63
2023/09/15 03:09:33;;;;;;;;;;;;;;;28.62;42.68;94312.91;5005585;28;6975;-63
2023/09/15 03:12:00;;;;;;;;;;;;;;;28.61;41.99;94314.19;5001138;28;7296;-63
2023/09/15 03:14:27;;;;;;;;;;;;;;;28.63;42.46;94322.69;5003682;28;7215;-63
2023/09/15 03:16:56;;;;;;;;;;;;;;;28.64;42.48;94317.91;5006365;28;9271;-63
2023/09/15 03:19:23;;;;;;;;;;;;;;;28.62;42.56;94307.38;5004284;28;7015;-63
2023/09/15 03:21:50;;;;;;;;;;;;;;;28.62;41.84;94318.44;5011323;28;7038;-63
2023/09/15 03:24:24;;;;;;;;;;;;;;;28.61;42.21;94310.66;5009451;28;7224;-63
2023/09/15 03:26:56;;;;;;;;;;;;;;;28.65;42.51;94313.84;5003474;28;7207;-63
2023/09/15 03:29:23;;;;;;;;;;;;;;;28.63;42.38;94317.16;5002214;28;7242;-63
2023/09/15 03:31:58;;;;;;;;;;;;;;;28.62;42.14;94323.97;5006046;28;9088;-63
2023/09/15 03:34:46;;;;;;;;;;;;;;;28.62;42.50;94306.63;5011968;28;7244;-63
2023/09/15 03:37:20;;;;;;;;;;;;;;;28.62;42.01;94306.63;5002106;28;9318;-63
2023/09/15 03:39:46;;;;;;;;;;;;;;;28.63;42.44;94308.09;5008334;28;7088;-64
2023/09/15 03:42:15;;;;;;;;;;;;;;;28.64;42.42;94310.34;5003481;28;7213;-63
2023/09/15 03:44:46;;;;;;;;;;;;;;;28.64;42.69;94312.38;4998628;28;6856;-63
2023/09/15 03:48:04;;;;;;;;;;;;;;;28.65;42.07;94314.59;5009758;28;7259;-63
2023/09/15 03:50:35;;;;;;;;;;;;;;;28.63;42.32;94317.16;4936736;28;7144;-63
2023/09/15 03:53:02;;;;;;;;;;;;;;;28.62;42.63;94309.41;4936687;28;7237;-64
2023/09/15 03:55:40;;;;;;;;;;;;;;;28.59;42.06;94316.75;4940330;29;7271;-63
2023/09/15 03:58:20;;;;;;;;;;;;;;;28.60;41.59;94318.22;4948552;28;7239;-63
2023/09/15 04:01:01;;;;;;;;;;;;;;;28.62;42.35;94310.16;4932913;29;7297;-63
2023/09/15 04:03:40;;;;;;;;;;;;;;;28.60;42.50;94309.91;4950807;29;8776;-63
2023/09/15 04:06:45;;;;;;;;;;;;;;;28.60;41.75;94315.44;4944721;29;9787;-64
2023/09/15 04:09:37;;;;;;;;;;;;;;;28.61;42.10;94325.25;4936662;29;7222;-64
2023/09/15 04:12:19;;;;;;;;;;;;;;;28.60;42.38;94328.56;4936097;29;7357;-63
2023/09/15 04:14:46;;;;;;;;;;;;;;;28.57;42.02;94318.50;4952504;28;9127;-63
2023/09/15 04:17:12;;;;;;;;;;;;;;;28.59;42.74;94329.81;4936221;29;7343;-63
2023/09/15 04:19:42;;;;;;;;;;;;;;;28.59;42.66;94325.03;4949172;29;7071;-63
2023/09/15 04:22:28;;;;;;;;;;;;;;;28.61;42.57;94328.00;4952299;29;8971;-63
2023/09/15 04:25:15;;;;;;;;;;;;;;;28.58;42.38;94320.03;4946367;29;8741;-63
2023/09/15 04:27:47;;;;;;;;;;;;;;;28.59;41.94;94324.28;5008998;28;7241;-63
2023/09/15 04:30:33;;;;;;;;;;;;;;;28.59;42.52;94319.50;5021248;28;9090;-63
2023/09/15 04:33:35;;;;;;;;;;;;;;;28.59;42.05;94330.56;5012915;28;6978;-63
2023/09/15 04:36:05;;;;;;;;;;;;;;;28.58;42.34;94334.59;4951288;28;7160;-55
2023/09/15 04:38:31;;;;;;;;;;;;;;;28.58;42.58;94326.31;4963225;28;8778;-56
2023/09/15 04:41:15;;;;;;;;;;;;;;;28.57;42.11;94322.06;4949356;28;8549;-55
2023/09/15 04:43:51;;;;;;;;;;;;;;;28.57;42.78;94332.34;4949249;28;7245;-56
2023/09/15 04:46:18;;;;;;;;;;;;;;;28.56;42.51;94326.06;4954087;28;9252;-55
2023/09/15 04:48:45;;;;;;;;;;;;;;;28.56;42.36;94328.09;4951209;28;7011;-55
2023/09/15 04:51:11;;;;;;;;;;;;;;;28.57;42.87;94333.13;4947131;28;7224;-55
2023/09/15 04:54:20;;;;;;;;;;;;;;;28.60;42.67;94336.84;4967699;28;7214;-56
2023/09/15 04:57:31;;;;;;;;;;;;;;;28.58;42.68;94340.13;4962649;28;8858;-56
2023/09/15 04:59:59;;;;;;;;;;;;;;;28.58;42.89;94328.34;4942605;28;7241;-55
2023/09/15 05:02:26;;;;;;;;;;;;;;;28.61;42.94;94343.88;4949843;28;9539;-55
2023/09/15 05:04:54;;;;;;;;;;;;;;;28.59;42.96;94347.19;4959613;28;9375;-55
2023/09/15 05:07:24;;;;;;;;;;;;;;;28.59;43.16;94343.66;4964276;28;8953;-56
2023/09/15 05:09:57;;;;;;;;;;;;;;;28.57;42.55;94346.97;4965279;28;8810;-56
2023/09/15 05:12:24;;;;;;;;;;;;;;;28.58;42.42;94353.97;5025789;28;7083;-55
2023/09/15 05:14:50;;;;;;;;;;;;;;;28.57;42.30;94348.94;5011545;28;8751;-55
2023/09/15 05:17:17;;;;;;;;;;;;;;;28.56;42.89;94339.19;5020756;28;7442;-55
2023/09/15 05:19:49;;;;;;;;;;;;;;;28.57;42.80;94349.72;5023160;28;7024;-56
2023/09/15 05:22:19;;;;;;;;;;;;;;;28.60;42.86;94359.00;5011726;28;7115;-55
2023/09/15 05:24:47;;;;;;;;;;;;;;;28.57;43.21;94349.72;5025778;28;7278;-55
2023/09/15 05:27:21;;;;;;;;;;;;;;;28.57;42.94;94346.97;5027866;28;7282;-55
2023/09/15 05:29:55;;;;;;;;;;;;;;;28.58;42.26;94351.22;5009858;28;8968;-55
2023/09/15 05:32:30;;;;;;;;;;;;;;;28.55;43.01;94345.97;4998923;28;8744;-55
2023/09/15 05:35:16;;;;;;;;;;;;;;;28.57;42.93;94355.28;5009054;28;6860;-55
2023/09/15 05:37:53;;;;;;;;;;;;;;;28.57;42.34;94360.81;5004444;28;8930;-56
2023/09/15 05:40:25;;;;;;;;;;;;;;;28.57;43.01;94363.56;5005871;28;6997;-55
2023/09/15 05:43:11;;;;;;;;;;;;;;;28.55;42.91;94363.31;5012832;28;7299;-55
2023/09/15 05:45:42;;;;;;;;;;;;;;;28.55;42.84;94357.03;5023337;28;7268;-55
2023/09/15 05:48:17;;;;;;;;;;;;;;;28.54;42.65;94361.06;5010075;28;9195;-55
2023/09/15 05:51:12;;;;;;;;;;;;;;;28.54;43.09;94364.59;5008074;28;7243;-55
2023/09/15 05:53:39;;;;;;;;;;;;;;;28.51;43.16;94365.66;4952628;28;8969;-55
2023/09/15 05:56:20;;;;;;;;;;;;;;;28.50;43.03;94372.47;4949623;28;7605;-55
2023/09/15 05:59:15;;;;;;;;;;;;;;;28.52;42.73;94372.69;4948046;28;7250;-55
2023/09/15 06:02:00;;;;;;;;;;;;;;;28.52;42.77;94374.69;4913304;29;7408;-56
2023/09/15 06:04:38;;;;;;;;;;;;;;;28.53;42.54;94381.72;4912181;29;7270;-55
2023/09/15 06:07:13;;;;;;;;;;;;;;;28.52;42.76;94383.75;4913455;29;7227;-56
2023/09/15 06:09:56;;;;;;;;;;;;;;;28.52;42.87;94383.00;4896280;29;8011;-56
2023/09/15 06:12:43;;;;;;;;;;;;;;;28.50;43.21;94380.78;4913999;29;7411;-56
2023/09/15 06:15:39;;;;;;;;;;;;;;;28.49;42.88;94381.31;4898155;29;7308;-56
2023/09/15 06:18:43;;;;;;;;;;;;;;;28.48;42.92;94380.56;4858421;29;7321;-56
2023/09/15 06:21:24;;;;;;;;;;;;;;;28.48;42.85;94380.56;4868812;29;7006;-56
2023/09/15 06:24:01;;;;;;;;;;;;;;;28.47;42.73;94384.59;4843555;29;7249;-56
2023/09/15 06:26:29;;;;;;;;;;;;;;;28.48;42.73;94383.31;4867050;29;7220;-56
2023/09/15 06:29:21;;;;;;;;;;;;;;;28.46;42.60;94388.63;4865335;29;7073;-56
2023/09/15 06:31:59;;;;;;;;;;;;;;;28.46;42.82;94387.88;4878505;29;9102;-56
2023/09/15 06:34:28;;;;;;;;;;;;;;;28.46;43.02;94391.41;4878549;29;9096;-56
2023/09/15 06:37:14;;;;;;;;;;;;;;;28.46;42.46;94394.19;4882458;29;7671;-56
2023/09/15 06:39:40;;;;;;;;;;;;;;;28.46;42.54;94388.63;4941109;28;9455;-56
2023/09/15 06:42:20;;;;;;;;;;;;;;;28.47;42.67;94389.41;4926367;29;6990;-56
2023/09/15 06:44:49;;;;;;;;;;;;;;;28.48;42.16;94391.63;4929262;29;7279;-56
2023/09/15 06:47:16;;;;;;;;;;;;;;;28.47;42.26;94390.13;4952173;28;7026;-57
2023/09/15 06:49:49;;;;;;;;;;;;;;;28.48;42.75;94390.88;4952357;28;7514;-56
2023/09/15 06:52:15;;;;;;;;;;;;;;;28.47;43.08;94386.63;4950167;28;9076;-56
2023/09/15 06:54:51;;;;;;;;;;;;;;;28.47;42.13;94389.41;4972694;28;7219;-56
2023/09/15 06:57:24;;;;;;;;;;;;;;;28.45;42.42;94384.38;5024863;28;7519;-56
2023/09/15 06:59:55;;;;;;;;;;;;;;;28.46;42.97;94387.88;5022688;28;7310;-56
2023/09/15 07:02:25;;;;;;;;;;;;;;;28.46;42.53;94390.66;5013034;28;7256;-56
2023/09/15 07:05:11;;;;;;;;;;;;;;;28.43;42.72;94386.94;5012685;28;7265;-56
2023/09/15 07:07:47;;;;;;;;;;;;;;;28.41;42.91;94391.50;5024762;28;7406;-56
2023/09/15 07:10:43;;;;;;;;;;;;;;;28.42;43.19;94399.28;5012122;28;8903;-56
2023/09/15 07:13:31;;;;;;;;;;;;;;;28.43;42.42;94389.69;4939330;28;7210;-56
2023/09/15 07:16:24;;;;;;;;;;;;;;;28.45;42.78;94391.94;4933590;29;7024;-56
2023/09/15 07:18:51;;;;;;;;;;;;;;;28.41;42.74;94392.25;4944848;28;7887;-56
2023/09/15 07:21:28;;;;;;;;;;;;;;;28.43;42.75;94389.69;4943466;28;7301;-57
2023/09/15 07:23:55;;;;;;;;;;;;;;;28.44;43.26;94393.22;4925345;29;7071;-56
2023/09/15 07:26:47;;;;;;;;;;;;;;;28.45;42.84;94387.13;4943109;28;7215;-56
2023/09/15 07:29:23;;;;;;;;;;;;;;;28.45;42.43;94391.94;4934528;28;7082;-57
2023/09/15 07:31:51;;;;;;;;;;;;;;;28.48;42.66;94399.16;4947807;28;7350;-56
2023/09/15 07:34:21;;;;;;;;;;;;;;;28.47;42.20;94392.88;4938363;28;7182;-57
2023/09/15 07:36:50;;;;;;;;;;;;;;;28.49;42.11;94393.13;4923588;28;8247;-57
2023/09/15 07:39:25;;;;;;;;;;;;;;;28.48;42.24;94397.16;4935957;28;7490;-57
2023/09/15 07:41:52;;;;;;;;;;;;;;;28.48;42.52;94401.94;4937464;28;7257;-56
2023/09/15 07:44:27;;;;;;;;;;;;;;;28.47;42.29;94395.66;4935869;29;7410;-57
2023/09/15 07:47:20;;;;;;;;;;;;;;;28.45;42.56;94397.47;4936598;28;7387;-56
2023/09/15 07:49:48;;;;;;;;;;;;;;;28.47;42.51;94406.00;4985669;28;8420;-57
2023/09/15 07:52:34;;;;;;;;;;;;;;;28.46;42.10;94399.72;5022123;28;7618;-56
2023/09/15 07:55:02;;;;;;;;;;;;;;;28.43;42.21;94392.47;5020779;28;9298;-56
2023/09/15 07:57:34;;;;;;;;;;;;;;;28.40;42.77;94390.75;5022167;28;7008;-56
2023/09/15 08:00:07;;;;;;;;;;;;;;;28.39;42.38;94400.34;5009224;28;7257;-57
2023/09/15 08:02:37;;;;;;;;;;;;;;;28.38;42.45;94398.84;5009290;28;8907;-57
2023/09/15 08:05:04;;;;;;;;;;;;;;;28.40;42.66;94393.53;5005074;28;7057;-57
2023/09/15 08:07:31;;;;;;;;;;;;;;;28.38;43.26;94396.81;5012891;28;9055;-56
2023/09/15 08:10:01;;;;;;;;;;;;;;;28.38;42.98;94396.09;5013473;28;7443;-56
2023/09/15 08:12:28;;;;;;;;;;;;;;;28.37;43.10;94394.59;5026493;28;7446;-56
2023/09/15 08:15:05;;;;;;;;;;;;;;;28.33;42.86;94399.69;5017228;28;8453;-56
2023/09/15 08:17:43;;;;;;;;;;;;;;;28.36;43.69;94395.88;5011620;28;7855;-56
2023/09/15 08:20:24;;;;;;;;;;;;;;;28.36;43.83;94395.88;4997933;28;8786;-57
2023/09/15 08:23:03;;;;;;;;;;;;;;;28.34;43.88;94403.94;5012813;28;7296;-57
2023/09/15 08:25:50;;;;;;;;;;;;;;;28.32;43.37;94396.16;5024923;28;7298;-56
2023/09/15 08:28:32;;;;;;;;;;;;;;;28.33;43.62;94394.91;5026165;28;7392;-56
2023/09/15 08:31:13;;;;;;;;;;;;;;;28.34;43.51;94395.63;5012148;28;9087;-57
2023/09/15 08:33:39;;;;;;;;;;;;;;;28.32;43.65;94400.94;5003261;28;7239;-57
2023/09/15 08:36:32;;;;;;;;;;;;;;;28.32;43.26;94389.88;5008652;28;8918;-57
2023/09/15 08:38:59;;;;;;;;;;;;;;;28.33;43.65;94396.91;4941303;28;9174;-56
2023/09/15 08:41:36;;;;;;;;;;;;;;;28.33;43.56;94392.13;4947087;29;9181;-57
2023/09/15 08:44:20;;;;;;;;;;;;;;;28.31;43.71;94394.69;4941169;28;6986;-57
2023/09/15 08:47:17;;;;;;;;;;;;;;;28.35;43.31;94397.88;4932444;28;8693;-57
2023/09/15 08:49:48;;;;;;;;;;;;;;;28.36;43.29;94393.09;4863142;29;7514;-56
2023/09/15 08:52:18;;;;;;;;;;;;;;;28.36;43.16;94395.88;4859738;29;8932;-57
2023/09/15 08:54:48;;;;;;;;;;;;;;;28.36;43.61;94396.59;4862202;29;8521;-57
2023/09/15 08:57:24;;;;;;;;;;;;;;;28.36;43.04;94391.06;4862644;29;7262;-58
2023/09/15 08:59:54;;;;;;;;;;;;;;;28.37;43.08;94394.59;4851643;29;6979;-57
2023/09/15 09:02:26;;;;;;;;;;;;;;;28.36;43.59;94390.34;4857947;29;7219;-58
2023/09/15 09:04:53;;;;;;;;;;;;;;;28.34;43.60;94393.63;4860695;29;7224;-57
2023/09/15 09:07:40;;;;;;;;;;;;;;;28.36;43.07;94393.09;4862118;29;7268;-58
2023/09/15 09:10:21;;;;;;;;;;;;;;;28.39;42.69;94394.78;4859340;29;8738;-57
2023/09/15 09:13:05;;;;;;;;;;;;;;;28.39;43.24;94403.09;4877577;29;9120;-57
2023/09/15 09:15:45;;;;;;;;;;;;;;;28.41;43.29;94403.31;4903043;28;8483;-62
2023/09/15 09:18:18;;;;;;;;;;;;;;;28.38;43.60;94392.56;4954822;28;9072;-62
2023/09/15 09:20:53;;;;;;;;;;;;;;;28.39;43.60;94389.25;4937487;28;7266;-62
2023/09/15 09:23:38;;;;;;;;;;;;;;;28.41;42.84;94392.25;4957374;28;7204;-62
2023/09/15 09:26:19;;;;;;;;;;;;;;;28.38;43.26;94394.03;4963713;28;7034;-62
2023/09/15 09:28:54;;;;;;;;;;;;;;;28.39;43.49;94383.72;5010470;28;8765;-62
2023/09/15 09:31:32;;;;;;;;;;;;;;;28.37;43.52;94386.28;5028598;28;8743;-63
2023/09/15 09:34:18;;;;;;;;;;;;;;;28.39;42.79;94383.72;5012915;28;7163;-63
2023/09/15 09:36:53;;;;;;;;;;;;;;;28.39;43.38;94383.72;5030858;28;8875;-64
2023/09/15 09:39:35;;;;;;;;;;;;;;;28.40;43.13;94385.22;5011345;28;8430;-63
2023/09/15 09:42:10;;;;;;;;;;;;;;;28.43;44.01;94383.44;5005173;28;7064;-63
2023/09/15 09:44:42;;;;;;;;;;;;;;;28.43;43.85;94386.94;5029287;28;7368;-63
2023/09/15 09:47:09;;;;;;;;;;;;;;;28.44;43.56;94376.59;5036810;28;7201;-63
2023/09/15 09:49:40;;;;;;;;;;;;;;;28.42;43.92;94379.16;5012972;28;7290;-63
2023/09/15 09:52:08;;;;;;;;;;;;;;;28.44;43.84;94380.13;5007787;28;7391;-63
2023/09/15 09:54:35;;;;;;;;;;;;;;;28.41;44.28;94375.66;5014383;28;6984;-63
2023/09/15 09:57:06;;;;;;;;;;;;;;;28.41;45.17;94372.88;5013434;28;9210;-62
2023/09/15 09:59:37;;;;;;;;;;;;;;;28.46;44.75;94372.03;5009807;28;7219;-63
2023/09/15 10:02:04;;;;;;;;;;;;;;;28.46;44.47;94371.28;5009386;28;9032;-63
2023/09/15 10:04:36;;;;;;;;;;;;;;;28.51;44.54;94376.75;5014191;28;9039;-63
2023/09/15 10:07:12;;;;;;;;;;;;;;;28.53;44.07;94376.94;5013032;28;7083;-62
2023/09/15 10:10:13;;;;;;;;;;;;;;;28.56;44.97;94375.16;5028799;28;9124;-63
2023/09/15 10:12:40;;;;;;;;;;;;;;;28.57;44.02;94368.31;4950957;28;8758;-63
2023/09/15 10:15:25;;;;;;;;;;;;;;;28.58;44.35;94367.81;4950163;28;7006;-63
2023/09/15 10:17:53;;;;;;;;;;;;;;;28.57;44.99;94360.81;4941072;28;9115;-62
2023/09/15 10:20:21;;;;;;;;;;;;;;;28.58;44.71;94362.28;4951597;28;7330;-62
2023/09/15 10:22:58;;;;;;;;;;;;;;;28.58;44.94;94367.81;4937996;28;7081;-60
2023/09/15 10:29:12;;;;;;;;;;;;;;;28.63;44.15;94366.97;4953876;28;7254;-53
2023/09/15 10:31:49;;;;;;;;;;;;;;;28.65;44.20;94378.25;4937968;28;9448;-54
2023/09/15 10:34:29;;;;;;;;;;;;;;;28.66;43.62;94365.91;4952220;28;7624;-54
2023/09/15 10:37:04;;;;;;;;;;;;;;;28.68;44.06;94366.13;4936539;28;7174;-54
2023/09/15 10:39:41;;;;;;;;;;;;;;;28.70;43.73;94371.13;4949590;28;7239;-53
2023/09/15 10:42:17;;;;;;;;;;;;;;;28.72;43.16;94366.56;4938694;28;7238;-53
2023/09/15 10:45:09;;;;;;;;;;;;;;;28.74;43.47;94364.00;4954273;28;9351;-54
2023/09/15 10:47:36;;;;;;;;;;;;;;;28.73;42.56;94354.19;4951871;28;7262;-54
2023/09/15 10:50:04;;;;;;;;;;;;;;;28.76;42.89;94355.91;5023507;28;9386;-54
2023/09/15 10:52:37;;;;;;;;;;;;;;;28.76;42.67;94350.38;5000384;28;8319;-54
2023/09/15 10:55:06;;;;;;;;;;;;;;;28.78;42.94;94349.81;5009460;28;7535;-53
2023/09/15 10:57:39;;;;;;;;;;;;;;;28.76;43.24;94353.13;5026223;28;9303;-53
2023/09/15 11:00:07;;;;;;;;;;;;;;;28.74;43.14;94346.63;5012968;28;7054;-54
2023/09/15 11:02:38;;;;;;;;;;;;;;;28.78;42.94;94347.06;5010101;28;8822;-54
2023/09/15 11:05:05;;;;;;;;;;;;;;;28.80;43.46;94338.97;5023732;28;9118;-54
2023/09/15 11:07:35;;;;;;;;;;;;;;;28.82;43.05;94342.69;5024781;28;7211;-54
2023/09/15 11:10:06;;;;;;;;;;;;;;;28.83;43.42;94338.66;5011810;28;7026;-54
2023/09/15 11:12:34;;;;;;;;;;;;;;;28.83;42.92;94335.13;5033101;28;7494;-54
2023/09/15 11:15:21;;;;;;;;;;;;;;;28.84;43.27;94328.34;5005698;28;7155;-54
2023/09/15 11:17:47;;;;;;;;;;;;;;;28.85;42.71;94325.03;5001337;28;7528;-54
2023/09/15 11:20:18;;;;;;;;;;;;;;;28.87;43.54;94330.78;5020068;28;9160;-54
2023/09/15 11:22:59;;;;;;;;;;;;;;;28.89;42.55;94330.22;5012496;28;7391;-54
2023/09/15 11:25:44;;;;;;;;;;;;;;;28.88;43.26;94328.75;5009408;28;7201;-54
2023/09/15 11:28:43;;;;;;;;;;;;;;;28.87;43.06;94330.78;5010464;28;7230;-54
2023/09/15 11:31:23;;;;;;;;;;;;;;;28.86;43.52;94331.31;5013372;28;9125;-53
2023/09/15 11:33:52;;;;;;;;;;;;;;;28.86;43.25;94328.53;5000552;28;9037;-54
2023/09/15 11:36:35;;;;;;;;;;;;;;;28.88;43.18;94328.75;5005384;28;7502;-62
2023/09/15 11:39:38;;;;;;;;;;;;;;;28.87;42.56;94316.19;5024089;28;7160;-61
2023/09/15 11:42:13;;;;;;;;;;;;;;;28.90;43.22;94326.94;4951187;28;7311;-62
2023/09/15 11:45:31;;;;;;;;;;;;;;;28.94;42.96;94319.06;4940739;28;7329;-62
2023/09/15 11:47:59;;;;;;;;;;;;;;;28.88;43.16;94318.41;4947103;28;7244;-62
2023/09/15 11:50:44;;;;;;;;;;;;;;;28.88;42.86;94314.91;4946164;28;6995;-61
2023/09/15 11:53:42;;;;;;;;;;;;;;;28.92;42.58;94309.78;4925214;29;9132;-61
2023/09/15 11:56:14;;;;;;;;;;;;;;;28.89;43.38;94310.84;4927257;28;8981;-62
2023/09/15 11:59:05;;;;;;;;;;;;;;;28.89;44.34;94305.31;4953486;28;7322;-62
2023/09/15 12:05:35;;;;;;;;;;;;;;;29.23;43.49;94286.00;4948751;29;8838;-62
2023/09/15 12:08:05;;;;;;;;;;;;;;;29.31;42.73;94282.03;4951041;28;9165;-62
2023/09/15 12:10:45;;;;;;;;;;;;;;;29.32;43.61;94277.97;4935971;29;9041;-62
2023/09/15 12:13:11;;;;;;;;;;;;;;;29.31;42.93;94284.78;4952155;29;7466;-62
2023/09/15 12:16:18;;;;;;;;;;;;;;;29.30;42.67;94285.31;4949484;28;7144;-62
2023/09/15 12:18:51;;;;;;;;;;;;;;;29.24;43.82;94277.13;5005962;28;7272;-62
2023/09/15 12:21:24;;;;;;;;;;;;;;;29.20;43.88;94273.97;5013591;28;7088;-62
2023/09/15 12:23:54;;;;;;;;;;;;;;;29.21;43.87;94278.19;5013959;28;7185;-62
2023/09/15 12:26:47;;;;;;;;;;;;;;;29.21;43.16;94277.47;5002937;28;8859;-62
2023/09/15 12:29:47;;;;;;;;;;;;;;;29.22;43.98;94281.72;4973214;28;7420;-62
2023/09/15 12:32:53;;;;;;;;;;;;;;;29.18;44.13;94279.28;4955238;28;7185;-62
2023/09/15 12:35:51;;;;;;;;;;;;;;;29.20;44.14;94273.22;4953192;28;7172;-62
2023/09/15 12:38:20;;;;;;;;;;;;;;;29.18;43.97;94270.22;4916644;29;7171;-62
2023/09/15 12:40:49;;;;;;;;;;;;;;;29.17;43.98;94255.63;4912251;29;9646;-62
2023/09/15 12:43:16;;;;;;;;;;;;;;;29.20;44.68;94260.09;4913435;29;7012;-62
2023/09/15 12:45:44;;;;;;;;;;;;;;;29.20;44.04;94259.34;4903972;29;7007;-53
2023/09/15 12:48:40;;;;;;;;;;;;;;;29.20;44.64;94254.56;4917102;29;8824;-54
2023/09/15 12:51:06;;;;;;;;;;;;;;;29.22;44.16;94259.56;4880308;29;7295;-54
2023/09/15 12:53:34;;;;;;;;;;;;;;;29.24;43.83;94254.22;4863765;29;7359;-54
2023/09/15 12:56:06;;;;;;;;;;;;;;;29.24;43.73;94263.28;4884420;29;7631;-54
2023/09/15 12:58:44;;;;;;;;;;;;;;;29.26;43.74;94260.72;4858315;29;7259;-54
2023/09/15 13:01:21;;;;;;;;;;;;;;;29.31;44.49;94264.66;4866923;29;7026;-54
2023/09/15 13:04:32;;;;;;;;;;;;;;;29.32;44.37;94260.59;4867641;29;7259;-53
2023/09/15 13:07:00;;;;;;;;;;;;;;;29.27;43.62;94259.44;4798224;29;8795;-54
2023/09/15 13:09:59;;;;;;;;;;;;;;;29.30;44.42;94254.84;4860254;29;7215;-54
2023/09/15 13:12:55;;;;;;;;;;;;;;;29.31;44.27;94256.34;4861309;29;7187;-54
2023/09/15 13:15:21;;;;;;;;;;;;;;;29.31;44.71;94257.09;4824879;29;7267;-53
2023/09/15 13:18:07;;;;;;;;;;;;;;;29.32;43.63;94255.06;4834941;29;9123;-54
2023/09/15 13:20:42;;;;;;;;;;;;;;;29.31;43.86;94251.53;4822945;29;7242;-54
2023/09/15 13:23:17;;;;;;;;;;;;;;;29.30;44.28;94240.97;4822466;29;7280;-54
2023/09/15 13:26:05;;;;;;;;;;;;;;;29.32;44.09;94238.44;4823553;29;6995;-54
2023/09/15 13:28:50;;;;;;;;;;;;;;;29.34;44.13;94230.34;4841700;29;9078;-54
2023/09/15 13:31:43;;;;;;;;;;;;;;;29.34;44.36;94230.34;4841229;29;7236;-54
2023/09/15 13:34:28;;;;;;;;;;;;;;;29.37;43.31;94226.47;4843456;29;8817;-54
2023/09/15 13:37:05;;;;;;;;;;;;;;;29.36;44.07;94216.69;4840807;29;7644;-53
2023/09/15 13:39:32;;;;;;;;;;;;;;;29.38;43.98;94214.88;4837427;29;7243;-53
2023/09/15 13:41:59;;;;;;;;;;;;;;;29.39;44.65;94221.13;4840009;29;7233;-54
2023/09/15 13:44:25;;;;;;;;;;;;;;;29.43;44.23;94227.06;4865506;29;7342;-54
2023/09/15 13:46:56;;;;;;;;;;;;;;;29.43;43.70;94216.75;4876385;29;8827;-54
2023/09/15 13:49:22;;;;;;;;;;;;;;;29.48;43.90;94220.66;4940377;28;9730;-53
2023/09/15 13:51:51;;;;;;;;;;;;;;;29.52;44.52;94224.59;4972014;28;7651;-53
2023/09/15 13:54:19;;;;;;;;;;;;;;;29.50;43.64;94216.06;5013736;28;9162;-60
2023/09/15 13:56:47;;;;;;;;;;;;;;;29.54;43.65;94213.69;5015183;28;7010;-55
2023/09/15 13:59:22;;;;;;;;;;;;;;;29.55;44.17;94209.66;5015242;28;8497;-55
2023/09/15 14:01:48;;;;;;;;;;;;;;;29.57;43.79;94204.31;5030904;28;6978;-55
2023/09/15 14:04:27;;;;;;;;;;;;;;;29.59;44.20;94212.06;4979365;28;7447;-55